Time;durP1;ratioP1;P1;durP2;ratioP2;P2;SDS_P1;SDS_P2;PMS_P1;PMS_P2;Temp;Humidity;BMP_temperature;BMP_pressure;BME280_temperature;BME280_humidity;BME280_pressure;Samples;Min_cycle;Max_cycle;Signal;HPM_P1;HPM_P2
2021/12/23 00:00:13;;;;;;;11.75;8.82;;;-0.10;99.90;;;;;;5033214;28;20041;-61
2021/12/23 00:02:39;;;;;;;12.27;9.68;;;-0.60;99.90;;;;;;5033117;28;20140;-62
2021/12/23 00:05:07;;;;;;;19.90;9.23;;;-0.10;99.90;;;;;;5034220;28;20120;-62
2021/12/23 00:07:33;;;;;;;12.02;9.70;;;-0.10;99.90;;;;;;5036028;28;20037;-62
2021/12/23 00:10:05;;;;;;;14.13;10.18;;;-0.10;99.90;;;;;;5037828;28;20061;-63
2021/12/23 00:12:32;;;;;;;12.20;9.20;;;-0.20;99.90;;;;;;5016484;28;20061;-63
2021/12/23 00:14:58;;;;;;;13.25;9.93;;;-0.10;99.90;;;;;;4952447;28;20134;-65
2021/12/23 00:25:19;;;;;;;13.85;9.27;;;0.00;99.90;;;;;;5034428;28;20056;-62
2021/12/23 00:27:45;;;;;;;12.27;10.20;;;0.00;99.90;;;;;;5035592;28;20041;-63
2021/12/23 00:30:11;;;;;;;13.52;9.00;;;0.00;99.90;;;;;;5035623;28;20053;-62
2021/12/23 00:32:37;;;;;;;10.18;8.63;;;0.00;99.90;;;;;;5014805;28;20475;-62
2021/12/23 00:35:04;;;;;;;14.60;10.43;;;0.00;99.90;;;;;;5035729;28;20075;-62
2021/12/23 00:37:37;;;;;;;15.68;10.80;;;-0.10;99.90;;;;;;5035929;28;20057;-62
2021/12/23 00:40:04;;;;;;;15.15;11.43;;;-0.10;99.90;;;;;;5035506;28;20060;-62
2021/12/23 00:42:31;;;;;;;12.95;10.27;;;-0.10;99.90;;;;;;5035558;28;20053;-63
2021/12/23 00:44:57;;;;;;;20.90;11.43;;;-0.20;99.90;;;;;;5035295;28;20120;-63
2021/12/23 00:47:22;;;;;;;19.33;13.23;;;-0.20;99.90;;;;;;5035471;28;20168;-63
2021/12/23 00:49:48;;;;;;;16.90;12.27;;;-0.20;99.90;;;;;;5035063;28;20139;-62
2021/12/23 00:52:17;;;;;;;18.67;12.48;;;-0.20;99.90;;;;;;5035710;28;20076;-62
2021/12/23 00:54:42;;;;;;;14.20;11.60;;;-0.10;99.90;;;;;;5017306;28;20045;-62
2021/12/23 00:57:08;;;;;;;15.40;11.60;;;-0.20;99.90;;;;;;5035469;28;20121;-62
2021/12/23 00:59:35;;;;;;;26.20;12.60;;;-0.10;99.90;;;;;;5016800;28;20053;-62
2021/12/23 01:02:03;;;;;;;16.80;10.20;;;-0.10;99.90;;;;;;5035817;28;20114;-63
2021/12/23 01:04:29;;;;;;;13.77;10.90;;;-0.20;99.90;;;;;;5038317;28;20870;-62
2021/12/23 01:06:54;;;;;;;15.85;11.48;;;-0.20;99.90;;;;;;5038839;28;20065;-62
2021/12/23 01:09:21;;;;;;;18.98;11.80;;;-0.20;99.90;;;;;;5039529;28;20156;-62
2021/12/23 01:11:49;;;;;;;16.80;11.82;;;-0.10;99.90;;;;;;5040421;28;20163;-63
2021/12/23 01:19:17;;;;;;;17.52;11.32;;;0.00;99.90;;;;;;5041828;28;20084;-62
2021/12/23 01:21:43;;;;;;;13.15;10.27;;;0.00;99.90;;;;;;5041439;28;20049;-62
2021/12/23 01:24:10;;;;;;;16.02;10.98;;;0.20;99.90;;;;;;5041784;28;20051;-63
2021/12/23 01:26:37;;;;;;;18.92;11.07;;;0.30;99.90;;;;;;5041046;28;20064;-62
2021/12/23 01:29:03;;;;;;;13.82;11.55;;;0.30;99.90;;;;;;5041360;28;20064;-62
2021/12/23 01:31:30;;;;;;;18.75;12.25;;;0.30;99.90;;;;;;5041297;28;20122;-63
2021/12/23 01:33:56;;;;;;;18.50;11.77;;;0.30;99.90;;;;;;5023205;28;20049;-63
2021/12/23 01:36:22;;;;;;;15.95;11.50;;;0.20;99.90;;;;;;5022914;28;20095;-62
2021/12/23 01:38:48;;;;;;;16.95;11.25;;;0.20;99.90;;;;;;5040890;28;20080;-61
2021/12/23 01:41:14;;;;;;;15.30;11.32;;;0.20;99.90;;;;;;5023054;28;20136;-61
2021/12/23 01:43:40;;;;;;;16.35;12.68;;;0.00;99.90;;;;;;5041067;28;20110;-62
2021/12/23 01:46:06;;;;;;;14.95;10.70;;;-0.10;99.90;;;;;;5023366;28;20123;-61
2021/12/23 01:48:32;;;;;;;18.27;12.65;;;-0.10;99.90;;;;;;5022396;28;20045;-61
2021/12/23 01:50:58;;;;;;;16.83;12.40;;;-0.10;99.90;;;;;;5022541;28;20048;-62
2021/12/23 01:53:23;;;;;;;19.38;13.23;;;-0.10;99.90;;;;;;5022837;28;20647;-62
2021/12/23 01:55:49;;;;;;;16.05;12.50;;;-0.20;99.90;;;;;;5041044;28;20156;-62
2021/12/23 01:58:15;;;;;;;18.15;12.07;;;-0.10;99.90;;;;;;5021994;28;20257;-62
2021/12/23 02:00:44;;;;;;;14.73;11.18;;;-0.10;99.90;;;;;;5022346;28;20051;-62
2021/12/23 02:03:11;;;;;;;13.65;9.60;;;-0.10;99.90;;;;;;5040228;28;20045;-62
2021/12/23 02:05:37;;;;;;;15.68;9.50;;;0.40;99.90;;;;;;5039600;28;20496;-62
2021/12/23 02:08:03;;;;;;;15.77;12.68;;;-0.10;99.90;;;;;;5040236;28;20056;-63
2021/12/23 02:10:29;;;;;;;22.70;13.35;;;-0.10;99.90;;;;;;5039633;28;20460;-63
2021/12/23 02:12:55;;;;;;;16.85;11.48;;;-0.10;99.90;;;;;;5039745;28;20241;-62
2021/12/23 02:15:21;;;;;;;18.08;12.55;;;-0.10;99.90;;;;;;5022379;28;20140;-62
2021/12/23 02:17:49;;;;;;;17.50;11.80;;;-0.10;99.90;;;;;;5040035;28;20045;-62
2021/12/23 02:20:33;;;;;;;17.27;10.98;;;-0.10;99.90;;;;;;5040210;28;20060;-62
2021/12/23 02:22:59;;;;;;;17.58;11.65;;;-0.10;99.90;;;;;;5022007;28;20740;-62
2021/12/23 02:25:25;;;;;;;18.75;12.20;;;-0.10;99.90;;;;;;5040011;28;20118;-62
2021/12/23 02:27:53;;;;;;;17.38;12.02;;;0.00;99.90;;;;;;5041057;28;20743;-63
2021/12/23 02:30:24;;;;;;;18.58;12.38;;;0.00;99.90;;;;;;5041332;28;20072;-63
2021/12/23 02:32:51;;;;;;;16.77;11.20;;;0.00;99.90;;;;;;5040468;28;20060;-62
2021/12/23 02:35:19;;;;;;;18.40;12.23;;;0.00;99.90;;;;;;5021524;28;21189;-63
2021/12/23 02:37:46;;;;;;;18.25;11.32;;;0.00;99.90;;;;;;5040018;28;20045;-62
2021/12/23 02:40:27;;;;;;;21.05;11.30;;;0.10;99.90;;;;;;5021573;28;20804;-63
2021/12/23 02:42:55;;;;;;;14.82;12.30;;;0.10;99.90;;;;;;5023009;28;20061;-62
2021/12/23 02:45:21;;;;;;;21.10;11.50;;;0.20;99.90;;;;;;5041097;28;20106;-63
2021/12/23 02:47:47;;;;;;;15.95;12.32;;;0.20;99.90;;;;;;5039551;28;20041;-63
2021/12/23 02:50:12;;;;;;;12.93;11.57;;;0.20;99.90;;;;;;5021183;28;20808;-63
2021/12/23 02:52:38;;;;;;;15.20;13.68;;;0.30;99.90;;;;;;5038262;28;20098;-63
2021/12/23 02:55:05;;;;;;;17.50;12.07;;;0.30;99.90;;;;;;5039759;28;20048;-62
2021/12/23 02:57:32;;;;;;;12.55;10.38;;;0.30;99.90;;;;;;5022495;28;20056;-63
2021/12/23 02:59:58;;;;;;;17.20;11.85;;;0.40;99.90;;;;;;5021998;28;20049;-63
2021/12/23 03:02:24;;;;;;;16.98;11.98;;;0.40;99.90;;;;;;5021709;28;20396;-63
2021/12/23 03:04:49;;;;;;;16.38;11.70;;;0.50;99.90;;;;;;5022058;28;20049;-63
2021/12/23 03:07:15;;;;;;;17.20;11.38;;;0.50;99.90;;;;;;5021373;28;20789;-63
2021/12/23 03:09:44;;;;;;;20.52;12.25;;;0.50;99.90;;;;;;5021463;28;20974;-63
2021/12/23 03:12:10;;;;;;;17.65;11.60;;;0.50;99.90;;;;;;5040010;28;20057;-62
2021/12/23 03:14:36;;;;;;;12.20;10.43;;;0.50;99.90;;;;;;5021883;28;20045;-62
2021/12/23 03:17:02;;;;;;;18.50;13.40;;;0.50;99.90;;;;;;5039602;28;20052;-62
2021/12/23 03:19:27;;;;;;;20.67;11.73;;;0.50;99.90;;;;;;5039421;28;20056;-63
2021/12/23 03:21:53;;;;;;;17.25;11.30;;;0.50;99.90;;;;;;5021358;28;20377;-63
2021/12/23 03:24:19;;;;;;;16.58;11.75;;;1.30;99.90;;;;;;5020928;28;20051;-62
2021/12/23 03:26:45;;;;;;;13.23;10.90;;;0.50;99.90;;;;;;5039366;28;20045;-63
2021/12/23 03:29:11;;;;;;;14.60;9.93;;;0.60;99.90;;;;;;5039404;28;20041;-63
2021/12/23 03:31:38;;;;;;;14.80;10.93;;;0.60;99.90;;;;;;5020869;28;20139;-63
2021/12/23 03:34:04;;;;;;;17.75;10.30;;;0.60;99.90;;;;;;5036033;28;20150;-63
2021/12/23 03:36:30;;;;;;;15.70;11.68;;;0.60;99.90;;;;;;5032662;28;20073;-62
2021/12/23 03:38:56;;;;;;;17.38;10.48;;;0.50;99.90;;;;;;5038006;28;20098;-63
2021/12/23 03:41:21;;;;;;;16.63;11.02;;;0.60;99.90;;;;;;5020752;28;20118;-63
2021/12/23 03:43:47;;;;;;;17.98;11.75;;;0.60;99.90;;;;;;5039086;28;20041;-63
2021/12/23 03:46:13;;;;;;;15.88;10.30;;;0.60;99.90;;;;;;5021031;28;20053;-63
2021/12/23 03:48:38;;;;;;;17.65;11.15;;;0.60;99.90;;;;;;5024949;28;20051;-63
2021/12/23 03:51:04;;;;;;;15.10;10.20;;;0.60;99.90;;;;;;5036625;28;20086;-63
2021/12/23 03:53:29;;;;;;;19.90;10.27;;;0.60;99.90;;;;;;5020828;28;20067;-63
2021/12/23 03:55:55;;;;;;;20.92;11.95;;;0.60;99.90;;;;;;5020579;28;20059;-63
2021/12/23 03:58:21;;;;;;;14.88;10.27;;;0.70;99.90;;;;;;5038549;28;20107;-63
2021/12/23 04:00:47;;;;;;;17.35;10.35;;;0.70;99.90;;;;;;5038691;28;20782;-63
2021/12/23 04:03:13;;;;;;;19.77;10.73;;;0.70;99.90;;;;;;5019553;28;20056;-63
2021/12/23 04:05:39;;;;;;;18.80;10.98;;;0.70;99.90;;;;;;5038397;28;20045;-62
2021/12/23 04:08:05;;;;;;;18.73;11.88;;;0.70;99.90;;;;;;5038423;28;20052;-63
2021/12/23 04:10:32;;;;;;;17.42;9.60;;;0.70;99.90;;;;;;5037753;28;20052;-63
2021/12/23 04:12:57;;;;;;;17.38;10.77;;;0.70;99.90;;;;;;5038634;28;20052;-63
2021/12/23 04:15:23;;;;;;;14.75;10.82;;;0.70;99.90;;;;;;5038663;28;20049;-63
2021/12/23 04:17:49;;;;;;;17.70;11.50;;;0.70;99.90;;;;;;5019836;28;20431;-62
2021/12/23 04:22:45;;;;;;;22.05;10.98;;;0.70;99.90;;;;;;5038019;28;20792;-62
2021/12/23 04:25:12;;;;;;;15.93;11.27;;;0.70;99.90;;;;;;5019545;28;20056;-62
2021/12/23 04:27:38;;;;;;;18.98;11.07;;;0.70;99.90;;;;;;5021255;28;20059;-62
2021/12/23 04:30:06;;;;;;;18.00;11.23;;;0.70;99.90;;;;;;5039542;28;20143;-62
2021/12/23 04:32:31;;;;;;;19.35;11.80;;;0.70;99.90;;;;;;5038413;28;20052;-62
2021/12/23 04:34:57;;;;;;;15.85;10.73;;;0.80;99.90;;;;;;5022402;28;20045;-62
2021/12/23 04:37:23;;;;;;;15.65;11.13;;;0.50;99.90;;;;;;5042609;28;20710;-62
2021/12/23 04:39:48;;;;;;;15.70;11.25;;;0.80;99.90;;;;;;5041821;28;20156;-62
2021/12/23 04:42:14;;;;;;;15.23;10.90;;;0.80;99.90;;;;;;5042414;28;20127;-62
2021/12/23 04:44:40;;;;;;;18.20;11.15;;;0.80;99.90;;;;;;5018212;28;20142;-62
2021/12/23 04:47:05;;;;;;;18.33;11.82;;;0.80;99.90;;;;;;5042132;28;20059;-62
2021/12/23 04:49:31;;;;;;;16.27;10.90;;;0.80;99.90;;;;;;5042524;28;20051;-62
2021/12/23 04:51:56;;;;;;;15.05;11.13;;;0.90;99.90;;;;;;5024530;28;20049;-62
2021/12/23 04:54:22;;;;;;;18.75;11.80;;;0.90;99.90;;;;;;5041945;28;20057;-62
2021/12/23 04:56:48;;;;;;;16.95;11.73;;;0.90;99.90;;;;;;5042359;28;20598;-62
2021/12/23 04:59:13;;;;;;;30.65;14.30;;;0.90;99.90;;;;;;5041938;28;20084;-62
2021/12/23 05:01:39;;;;;;;17.45;10.48;;;0.90;99.90;;;;;;5024094;28;20045;-62
2021/12/23 05:04:04;;;;;;;19.30;12.05;;;0.90;99.90;;;;;;5024291;28;20064;-63
2021/12/23 05:06:30;;;;;;;13.27;10.77;;;0.90;99.90;;;;;;5023288;28;20814;-62
2021/12/23 05:08:56;;;;;;;21.80;12.07;;;0.90;99.90;;;;;;5023506;28;20136;-62
2021/12/23 05:11:21;;;;;;;16.27;10.50;;;0.90;99.90;;;;;;5042259;28;20102;-62
2021/12/23 05:13:47;;;;;;;17.55;11.65;;;0.90;99.90;;;;;;5042094;28;20045;-62
2021/12/23 05:16:14;;;;;;;17.55;11.50;;;0.90;99.90;;;;;;5041683;28;20056;-62
2021/12/23 05:18:40;;;;;;;16.75;10.80;;;1.00;99.90;;;;;;5041739;28;20311;-62
2021/12/23 05:21:06;;;;;;;17.30;12.27;;;1.00;99.90;;;;;;5041207;28;20566;-62
2021/12/23 05:23:32;;;;;;;16.58;10.73;;;1.00;99.90;;;;;;5040942;28;20677;-62
2021/12/23 05:25:57;;;;;;;15.77;10.50;;;0.90;99.90;;;;;;5023339;28;20095;-62
2021/12/23 05:28:23;;;;;;;16.70;11.13;;;0.90;99.90;;;;;;5041057;28;20574;-62
2021/12/23 05:30:49;;;;;;;14.55;10.13;;;1.00;99.90;;;;;;5041578;28;20403;-62
2021/12/23 05:33:14;;;;;;;13.05;10.63;;;1.00;99.90;;;;;;5041607;28;20041;-62
2021/12/23 05:35:40;;;;;;;16.45;12.27;;;1.00;99.90;;;;;;5041146;28;20525;-62
2021/12/23 05:38:06;;;;;;;18.20;11.82;;;1.00;99.90;;;;;;5041478;28;20041;-62
2021/12/23 05:40:32;;;;;;;16.50;11.48;;;1.00;99.90;;;;;;5023104;28;20072;-62
2021/12/23 05:42:58;;;;;;;15.88;11.40;;;1.00;99.90;;;;;;5023241;28;20410;-62
2021/12/23 05:45:24;;;;;;;16.90;10.65;;;1.00;99.90;;;;;;5022858;28;20049;-62
2021/12/23 05:47:51;;;;;;;17.65;10.63;;;1.00;99.90;;;;;;5041153;28;20091;-62
2021/12/23 05:50:18;;;;;;;20.30;12.10;;;1.00;99.90;;;;;;5040852;28;20053;-62
2021/12/23 05:52:43;;;;;;;17.88;11.10;;;1.00;99.90;;;;;;5041795;28;20036;-62
2021/12/23 05:55:11;;;;;;;16.52;12.00;;;1.00;99.90;;;;;;5023133;28;20049;-62
2021/12/23 05:57:37;;;;;;;18.10;12.18;;;1.10;99.90;;;;;;5040700;28;20095;-62
2021/12/23 06:00:10;;;;;;;18.15;11.93;;;1.10;99.90;;;;;;5023104;28;20111;-62
2021/12/23 06:02:36;;;;;;;;;;;1.00;99.90;;;;;;5041482;28;20611;-62
2021/12/23 06:05:02;;;;;;;16.85;11.32;;;1.00;99.90;;;;;;5022793;28;19935;-62
2021/12/23 06:07:28;;;;;;;16.17;10.77;;;1.00;99.90;;;;;;5022736;28;20055;-62
2021/12/23 06:09:54;;;;;;;17.08;10.30;;;1.00;99.90;;;;;;5040442;28;20690;-62
2021/12/23 06:12:19;;;;;;;16.65;10.88;;;1.00;99.90;;;;;;5040925;28;20052;-62
2021/12/23 06:14:45;;;;;;;17.52;12.70;;;1.10;99.90;;;;;;5023133;28;20076;-62
2021/12/23 06:17:10;;;;;;;15.40;11.65;;;1.10;99.90;;;;;;5022677;28;20088;-62
2021/12/23 06:19:36;;;;;;;19.85;10.77;;;1.00;99.90;;;;;;5040987;28;20136;-62
2021/12/23 06:22:02;;;;;;;17.63;11.45;;;1.10;99.90;;;;;;5022322;28;20088;-62
2021/12/23 06:24:27;;;;;;;15.73;10.73;;;1.10;99.90;;;;;;5040053;28;20055;-62
2021/12/23 06:26:53;;;;;;;19.02;10.75;;;1.10;99.90;;;;;;5040397;28;20041;-62
2021/12/23 06:29:19;;;;;;;19.92;12.63;;;1.10;99.90;;;;;;5040292;28;20740;-62
2021/12/23 06:31:44;;;;;;;16.33;11.93;;;1.10;99.90;;;;;;5039990;28;20404;-62
2021/12/23 06:34:10;;;;;;;19.85;12.15;;;1.10;99.90;;;;;;5022103;28;20907;-62
2021/12/23 06:36:35;;;;;;;19.95;12.55;;;1.10;99.90;;;;;;5039987;28;20172;-62
2021/12/23 06:39:01;;;;;;;19.52;12.90;;;1.10;99.90;;;;;;5021425;28;20052;-63
2021/12/23 06:41:26;;;;;;;17.70;12.52;;;1.10;99.90;;;;;;5039944;28;20076;-62
2021/12/23 06:43:52;;;;;;;20.38;11.70;;;1.20;99.90;;;;;;5040426;28;20098;-62
2021/12/23 06:46:17;;;;;;;17.10;11.50;;;1.10;99.90;;;;;;5021956;28;20059;-62
2021/12/23 06:48:43;;;;;;;20.20;12.05;;;1.10;99.90;;;;;;5039884;28;20044;-62
2021/12/23 06:51:09;;;;;;;18.40;10.55;;;1.10;99.90;;;;;;5033759;28;20053;-62
2021/12/23 06:53:34;;;;;;;19.70;12.38;;;1.10;99.90;;;;;;5039070;28;20120;-62
2021/12/23 06:56:00;;;;;;;18.63;11.90;;;1.20;99.90;;;;;;5021969;28;20795;-62
2021/12/23 06:58:26;;;;;;;17.83;12.90;;;1.20;99.90;;;;;;5038740;28;20052;-62
2021/12/23 07:00:53;;;;;;;20.70;13.20;;;1.20;99.90;;;;;;5038796;28;20052;-62
2021/12/23 07:03:19;;;;;;;16.63;11.63;;;1.20;99.90;;;;;;5021120;28;20041;-62
2021/12/23 07:05:45;;;;;;;21.58;14.68;;;1.20;99.90;;;;;;5039619;28;20145;-62
2021/12/23 07:08:24;;;;;;;20.48;12.52;;;1.20;99.90;;;;;;5020672;28;20517;-62
2021/12/23 07:10:50;;;;;;;22.38;13.57;;;1.20;99.90;;;;;;5021627;28;20045;-62
2021/12/23 07:13:15;;;;;;;20.95;12.95;;;1.20;99.90;;;;;;5037761;28;20064;-63
2021/12/23 07:15:41;;;;;;;19.98;13.52;;;1.20;99.90;;;;;;5038274;28;20695;-62
2021/12/23 07:18:07;;;;;;;26.42;17.70;;;1.20;99.90;;;;;;5037503;28;20170;-62
2021/12/23 07:20:33;;;;;;;19.48;14.73;;;1.20;99.90;;;;;;5019030;28;20070;-62
2021/12/23 07:23:00;;;;;;;21.80;13.85;;;1.20;99.90;;;;;;5039074;28;20387;-62
2021/12/23 07:25:26;;;;;;;21.33;10.70;;;1.20;99.90;;;;;;5021083;28;20140;-62
2021/12/23 07:27:52;;;;;;;17.00;12.38;;;1.10;99.90;;;;;;5039473;28;20099;-62
2021/12/23 07:30:19;;;;;;;21.42;14.02;;;1.10;99.90;;;;;;5039395;28;20508;-62
2021/12/23 07:32:46;;;;;;;26.63;14.90;;;1.10;99.90;;;;;;5020785;28;20049;-63
2021/12/23 07:35:12;;;;;;;19.90;13.63;;;1.10;99.90;;;;;;5038221;28;20056;-63
2021/12/23 07:37:37;;;;;;;26.13;15.38;;;1.10;99.90;;;;;;5018432;28;20106;-63
2021/12/23 07:40:05;;;;;;;22.23;12.50;;;1.00;99.90;;;;;;5018794;28;20605;-63
2021/12/23 07:42:32;;;;;;;20.98;14.30;;;1.00;99.90;;;;;;5036449;28;20049;-63
2021/12/23 07:44:58;;;;;;;20.90;13.52;;;1.00;99.90;;;;;;5017832;28;20049;-63
2021/12/23 07:47:24;;;;;;;22.60;14.25;;;1.00;99.90;;;;;;5020540;28;20758;-62
2021/12/23 07:49:50;;;;;;;20.73;13.15;;;1.00;99.90;;;;;;5018565;28;20056;-63
2021/12/23 07:52:15;;;;;;;19.85;14.75;;;1.00;99.90;;;;;;5036122;28;20056;-62
2021/12/23 07:54:41;;;;;;;22.00;15.18;;;1.00;99.90;;;;;;5018370;28;20554;-63
2021/12/23 07:57:07;;;;;;;21.90;14.32;;;1.10;99.90;;;;;;5035798;28;20045;-63
2021/12/23 07:59:33;;;;;;;24.42;14.15;;;1.00;99.90;;;;;;5036434;28;20055;-63
2021/12/23 08:01:59;;;;;;;25.65;14.95;;;1.40;99.90;;;;;;5035827;28;20224;-63
2021/12/23 08:04:25;;;;;;;20.35;14.52;;;1.10;99.90;;;;;;5034391;28;20136;-63
2021/12/23 08:06:58;;;;;;;23.40;14.35;;;1.10;99.90;;;;;;5017776;28;20053;-62
2021/12/23 08:09:25;;;;;;;17.63;13.52;;;1.10;99.90;;;;;;5017056;28;20063;-63
2021/12/23 08:11:51;;;;;;;21.42;14.43;;;1.00;99.90;;;;;;5017620;28;20904;-63
2021/12/23 08:14:17;;;;;;;21.60;14.45;;;1.10;99.90;;;;;;5017976;28;20073;-63
2021/12/23 08:16:43;;;;;;;24.05;15.00;;;1.10;99.90;;;;;;5017083;28;20742;-62
2021/12/23 08:19:09;;;;;;;23.00;15.18;;;1.10;99.90;;;;;;5033336;28;20053;-62
2021/12/23 08:21:37;;;;;;;22.17;15.85;;;1.10;99.90;;;;;;5032547;28;20416;-62
2021/12/23 08:24:03;;;;;;;22.60;13.65;;;1.10;99.90;;;;;;5034495;28;20068;-63
2021/12/23 08:26:29;;;;;;;23.10;14.23;;;1.10;99.90;;;;;;5034626;28;20045;-62
2021/12/23 08:28:56;;;;;;;24.70;15.02;;;1.10;99.90;;;;;;5034794;28;20060;-62
2021/12/23 08:31:22;;;;;;;23.80;14.20;;;1.10;99.90;;;;;;5012598;28;20044;-63
2021/12/23 08:33:49;;;;;;;27.88;15.38;;;1.10;99.90;;;;;;5033447;28;20631;-64
2021/12/23 08:36:16;;;;;;;26.73;14.15;;;1.20;99.90;;;;;;5035259;28;20106;-65
2021/12/23 08:38:42;;;;;;;26.27;15.98;;;1.20;99.90;;;;;;5033567;28;20041;-64
2021/12/23 08:41:08;;;;;;;20.42;13.48;;;1.20;99.90;;;;;;5034267;28;20059;-64
2021/12/23 08:43:34;;;;;;;20.75;13.00;;;1.10;99.90;;;;;;5034430;28;20103;-64
2021/12/23 08:46:00;;;;;;;23.98;15.30;;;1.10;99.90;;;;;;5016841;28;20052;-64
2021/12/23 08:48:26;;;;;;;20.50;15.18;;;1.20;99.90;;;;;;5035937;28;20052;-64
2021/12/23 08:50:52;;;;;;;22.65;14.43;;;1.20;99.90;;;;;;5017432;28;20068;-64
2021/12/23 08:53:18;;;;;;;22.27;14.57;;;1.20;99.90;;;;;;5017166;28;20595;-64
2021/12/23 08:55:43;;;;;;;26.10;16.58;;;1.20;99.90;;;;;;5035751;28;20086;-64
2021/12/23 08:58:09;;;;;;;24.60;15.70;;;1.20;99.90;;;;;;5017627;28;20045;-64
2021/12/23 09:00:37;;;;;;;25.92;15.68;;;1.30;99.90;;;;;;5035147;28;20474;-64
2021/12/23 09:03:05;;;;;;;24.15;16.17;;;1.20;99.90;;;;;;5035831;28;20102;-64
2021/12/23 09:05:31;;;;;;;22.42;13.82;;;1.30;99.90;;;;;;5033961;28;20049;-64
2021/12/23 09:07:57;;;;;;;28.05;16.38;;;1.30;99.90;;;;;;5015994;28;20110;-64
2021/12/23 09:10:22;;;;;;;22.80;15.27;;;1.30;99.90;;;;;;5034671;28;20045;-64
2021/12/23 09:12:49;;;;;;;25.50;16.38;;;1.30;99.90;;;;;;5029487;28;20677;-64
2021/12/23 09:15:16;;;;;;;22.98;16.05;;;1.30;99.90;;;;;;5034871;28;20757;-65
2021/12/23 09:17:42;;;;;;;25.85;15.95;;;1.30;99.90;;;;;;5033048;28;20502;-64
2021/12/23 09:20:09;;;;;;;22.15;14.77;;;1.30;99.90;;;;;;5016859;28;20053;-64
2021/12/23 09:22:36;;;;;;;24.42;15.98;;;1.20;99.90;;;;;;5037665;28;20708;-64
2021/12/23 09:25:09;;;;;;;23.45;15.50;;;1.20;99.90;;;;;;5035955;28;20080;-65
2021/12/23 09:27:58;;;;;;;28.27;16.60;;;1.30;99.90;;;;;;5019755;28;20899;-64
2021/12/23 09:33:05;;;;;;;24.88;16.50;;;1.30;99.90;;;;;;5036798;28;20588;-65
2021/12/23 09:35:32;;;;;;;23.75;15.80;;;1.30;99.90;;;;;;5034581;28;20056;-64
2021/12/23 09:37:59;;;;;;;29.08;17.70;;;1.30;99.90;;;;;;5034680;28;20051;-64
2021/12/23 09:40:29;;;;;;;27.50;16.42;;;1.30;99.90;;;;;;5034657;28;20053;-65
2021/12/23 09:43:02;;;;;;;25.63;18.83;;;1.30;99.90;;;;;;5016276;28;20060;-64
2021/12/23 09:45:28;;;;;;;30.77;17.73;;;1.40;99.90;;;;;;5018666;28;20060;-64
2021/12/23 09:47:56;;;;;;;28.17;18.27;;;1.30;99.90;;;;;;5017838;28;20079;-64
2021/12/23 09:50:24;;;;;;;30.98;17.95;;;1.40;99.90;;;;;;5018459;28;20143;-65
2021/12/23 09:52:53;;;;;;;29.52;20.17;;;1.40;99.90;;;;;;5020106;28;20919;-64
2021/12/23 09:55:24;;;;;;;25.58;16.30;;;1.30;99.90;;;;;;5037697;28;20156;-64
2021/12/23 09:57:52;;;;;;;26.95;17.77;;;1.40;99.90;;;;;;5038023;28;20072;-64
2021/12/23 10:00:20;;;;;;;29.10;18.13;;;1.40;99.90;;;;;;5019674;28;20053;-65
2021/12/23 10:02:46;;;;;;;31.95;21.02;;;1.40;99.90;;;;;;5036278;28;20562;-66
2021/12/23 10:05:16;;;;;;;33.22;20.00;;;1.40;99.90;;;;;;5019415;28;20088;-66
2021/12/23 10:07:44;;;;;;;31.35;18.90;;;1.40;99.90;;;;;;5038434;28;20052;-65
2021/12/23 10:10:17;;;;;;;23.83;18.25;;;1.30;99.90;;;;;;5038103;28;20052;-65
2021/12/23 10:32:50;;;;;;;34.01;20.61;;;1.30;99.90;;;;;;4970729;28;10001124;-63
2021/12/23 10:38:08;;;;;;;34.25;19.95;;;1.40;99.90;;;;;;5033234;28;20147;-63
2021/12/23 10:40:36;;;;;;;34.67;20.27;;;1.40;99.90;;;;;;5033840;28;20889;-63
2021/12/23 10:43:02;;;;;;;42.15;25.83;;;1.40;99.90;;;;;;5034148;28;20068;-63
2021/12/23 10:45:51;;;;;;;35.85;24.90;;;1.50;99.90;;;;;;5033176;28;20040;-63
2021/12/23 10:48:17;;;;;;;35.25;21.00;;;1.40;99.90;;;;;;5015542;28;20103;-63
2021/12/23 10:50:47;;;;;;;40.20;22.23;;;1.50;99.90;;;;;;5016340;28;20044;-63
2021/12/23 10:53:29;;;;;;;42.70;22.65;;;1.50;99.90;;;;;;5015985;28;20069;-62
2021/12/23 10:59:16;;;;;;;41.05;22.75;;;1.50;99.90;;;;;;5032693;28;20781;-63
2021/12/23 11:02:29;;;;;;;37.88;22.65;;;1.50;99.90;;;;;;5033819;28;20049;-63
2021/12/23 11:05:21;;;;;;;39.70;23.95;;;1.50;99.90;;;;;;5033684;28;20048;-63
2021/12/23 11:08:07;;;;;;;36.42;21.77;;;1.50;99.90;;;;;;5029696;28;20044;-63
2021/12/23 11:30:42;;;;;;;45.70;24.38;;;1.40;99.90;;;;;;5029920;28;20137;-64
2021/12/23 11:44:06;;;;;;;;;;;1.50;99.90;;;;;;4950084;28;20059;-62
2021/12/23 11:46:45;;;;;;;45.28;25.05;;;1.50;99.90;;;;;;5018150;28;19925;-63
2021/12/23 11:49:13;;;;;;;40.55;24.40;;;1.40;99.90;;;;;;5018315;28;20060;-63
2021/12/23 11:54:11;;;;;;;36.10;22.23;;;1.40;99.90;;;;;;5038224;28;20159;-63
2021/12/23 11:56:44;;;;;;;37.45;24.63;;;1.40;99.90;;;;;;5038407;28;20114;-64
2021/12/23 11:59:11;;;;;;;;;;;1.40;99.90;;;;;;5038796;28;20821;-64
2021/12/23 12:02:16;;;;;;;38.63;24.88;;;1.40;99.90;;;;;;5032191;28;19967;-63
2021/12/23 12:04:43;;;;;;;44.45;22.23;;;1.40;99.90;;;;;;5037670;28;20492;-64
2021/12/23 12:07:27;;;;;;;33.20;21.60;;;1.40;99.90;;;;;;5038346;28;20484;-63
2021/12/23 12:09:56;;;;;;;37.50;22.95;;;1.50;99.90;;;;;;5019800;28;20051;-63
2021/12/23 12:12:21;;;;;;;41.10;23.95;;;1.50;99.90;;;;;;5018732;28;20057;-63
2021/12/23 12:14:47;;;;;;;40.03;21.73;;;1.50;99.90;;;;;;5035864;28;20072;-63
2021/12/23 12:17:25;;;;;;;41.45;25.33;;;1.50;99.90;;;;;;5017332;28;20492;-63
2021/12/23 12:20:22;;;;;;;40.42;24.80;;;1.50;99.90;;;;;;5036716;28;20057;-63
2021/12/23 12:23:11;;;;;;;37.15;24.65;;;1.60;99.90;;;;;;5036935;28;20059;-63
2021/12/23 12:25:41;;;;;;;35.92;22.98;;;1.60;99.90;;;;;;5038205;28;20044;-63
2021/12/23 12:28:06;;;;;;;42.03;22.85;;;1.60;99.90;;;;;;5038732;28;20144;-63
2021/12/23 12:30:47;;;;;;;37.97;24.45;;;1.60;99.90;;;;;;5037559;28;20826;-63
2021/12/23 12:33:18;;;;;;;43.10;26.10;;;1.60;99.90;;;;;;5038592;28;20048;-63
2021/12/23 12:35:50;;;;;;;36.08;23.70;;;1.70;99.90;;;;;;5038746;28;20117;-63
2021/12/23 12:38:22;;;;;;;39.20;25.40;;;1.70;99.90;;;;;;5019970;28;20383;-62
2021/12/23 12:40:57;;;;;;;46.88;26.48;;;1.70;99.90;;;;;;5020140;28;20114;-62
2021/12/23 12:43:50;;;;;;;41.05;24.45;;;1.70;99.90;;;;;;5038448;28;20059;-62
2021/12/23 12:46:40;;;;;;;39.03;24.55;;;1.70;99.90;;;;;;5038443;28;20608;-62
2021/12/23 12:49:16;;;;;;;43.47;25.38;;;1.70;99.90;;;;;;5038025;28;20057;-62
2021/12/23 12:51:46;;;;;;;38.05;25.35;;;1.70;99.90;;;;;;5037563;28;20073;-62
2021/12/23 12:54:18;;;;;;;47.10;25.83;;;1.70;99.90;;;;;;5019776;28;20797;-62
2021/12/23 12:56:47;;;;;;;48.20;26.77;;;1.70;99.90;;;;;;5041273;28;20186;-63
2021/12/23 12:59:14;;;;;;;46.28;25.38;;;1.80;99.90;;;;;;5040956;28;20049;-63
2021/12/23 13:01:42;;;;;;;37.42;25.02;;;1.80;99.90;;;;;;5023655;28;20049;-62
2021/12/23 13:04:30;;;;;;;39.17;25.00;;;1.80;99.90;;;;;;5041871;28;20059;-63
2021/12/23 13:06:59;;;;;;;37.65;25.70;;;1.80;99.90;;;;;;5041570;28;20107;-63
2021/12/23 13:09:31;;;;;;;39.10;24.30;;;1.80;99.90;;;;;;5041540;28;20479;-62
2021/12/23 13:12:00;;;;;;;43.65;25.83;;;1.80;99.90;;;;;;5023350;28;20060;-62
2021/12/23 13:15:15;;;;;;;39.38;25.45;;;1.80;99.90;;;;;;5041358;28;20357;-63
2021/12/23 13:17:48;;;;;;;42.80;25.77;;;1.90;99.90;;;;;;5040909;28;20044;-65
2021/12/23 13:20:15;;;;;;;45.00;26.10;;;1.80;99.90;;;;;;5022384;28;20146;-63
2021/12/23 13:22:43;;;;;;;37.33;22.33;;;1.90;99.90;;;;;;5022989;28;20045;-63
2021/12/23 13:25:10;;;;;;;30.80;21.75;;;1.80;99.90;;;;;;5039248;28;20160;-63
2021/12/23 13:27:40;;;;;;;39.50;23.77;;;1.90;99.90;;;;;;5020146;28;20045;-64
2021/12/23 13:30:08;;;;;;;43.92;25.83;;;1.90;99.90;;;;;;5020609;28;20052;-63
2021/12/23 13:32:34;;;;;;;40.78;26.17;;;1.90;99.90;;;;;;5038279;28;20037;-63
2021/12/23 13:35:30;;;;;;;46.97;24.92;;;1.90;99.90;;;;;;5037788;28;20037;-62
2021/12/23 13:37:56;;;;;;;37.60;22.77;;;1.90;99.90;;;;;;5024908;28;20061;-63
2021/12/23 13:40:30;;;;;;;36.45;24.30;;;1.90;99.90;;;;;;5037880;28;20053;-63
2021/12/23 13:42:56;;;;;;;44.13;26.08;;;2.00;99.90;;;;;;5037485;28;20701;-63
2021/12/23 13:45:21;;;;;;;44.35;27.30;;;2.00;99.90;;;;;;5017770;28;20048;-64
2021/12/23 13:47:55;;;;;;;38.33;23.77;;;2.00;99.90;;;;;;5018591;28;20087;-63
2021/12/23 13:50:23;;;;;;;42.40;22.75;;;2.00;99.90;;;;;;5018173;28;20057;-64
2021/12/23 13:52:50;;;;;;;38.28;23.63;;;2.00;99.90;;;;;;5015850;28;20822;-64
2021/12/23 13:55:22;;;;;;;43.08;25.83;;;2.00;99.90;;;;;;5018458;28;20136;-63
2021/12/23 13:57:51;;;;;;;48.13;25.60;;;2.00;99.90;;;;;;5020067;28;20139;-64